Time;durP1;ratioP1;P1;durP2;ratioP2;P2;SDS_P1;SDS_P2;PMS_P1;PMS_P2;Temp;Humidity;BMP_temperature;BMP_pressure;BME280_temperature;BME280_humidity;BME280_pressure;Samples;Min_cycle;Max_cycle;Signal;HPM_P1;HPM_P2
2022/06/05 00:00:46;;;;;;;0.40;0.10;;;;;;;19.35;53.15;100765.67;104291;1277;99734;-67
2022/06/05 00:03:20;;;;;;;0.40;0.10;;;;;;;19.35;53.36;100768.00;103931;1277;109606;-68
2022/06/05 00:06:05;;;;;;;0.40;0.10;;;;;;;19.32;53.45;100767.64;103685;1277;94470;-68
2022/06/05 00:09:03;;;;;;;0.40;0.10;;;;;;;19.24;53.54;100770.45;103754;1277;94715;-68
2022/06/05 00:11:40;;;;;;;0.40;0.10;;;;;;;19.18;53.73;100769.17;103364;1277;106585;-67
2022/06/05 00:14:08;;;;;;;0.40;0.10;;;;;;;19.18;53.66;100766.10;103663;1277;100575;-69
2022/06/05 00:16:36;;;;;;;0.40;0.10;;;;;;;19.19;53.60;100764.22;103828;1277;108199;-66
2022/06/05 00:19:04;;;;;;;0.40;0.10;;;;;;;19.17;53.76;100764.16;103625;1277;94759;-68
2022/06/05 00:21:32;;;;;;;0.40;0.10;;;;;;;19.20;53.72;100766.71;103687;1277;94293;-68
2022/06/05 00:24:00;;;;;;;0.40;0.10;;;;;;;19.21;53.79;100769.20;103828;1277;106963;-69
2022/06/05 00:26:31;;;;;;;0.40;0.10;;;;;;;19.18;53.63;100769.54;103634;1277;99960;-68
2022/06/05 00:29:15;;;;;;;0.40;0.10;;;;;;;19.15;53.74;100768.29;103646;1277;108721;-69
2022/06/05 00:31:52;;;;;;;0.40;0.10;;;;;;;19.11;53.75;100769.89;103879;1277;94645;-68
2022/06/05 00:34:20;;;;;;;0.40;0.10;;;;;;;19.00;53.86;100772.66;103619;1277;94845;-69
2022/06/05 00:37:42;;;;;;;0.40;0.10;;;;;;;18.93;53.97;100775.96;103766;1277;106983;-69
2022/06/05 00:40:22;;;;;;;0.40;0.10;;;;;;;18.88;54.06;100775.12;103590;1283;99922;-67
2022/06/05 00:42:51;;;;;;;0.40;0.10;;;;;;;18.80;54.08;100771.59;103569;1277;109378;-66
2022/06/05 00:45:20;;;;;;;0.40;0.10;;;;;;;18.85;54.02;100769.17;103942;1277;94814;-65
2022/06/05 00:47:49;;;;;;;0.40;0.10;;;;;;;18.80;53.92;100765.10;103673;1277;94302;-67
2022/06/05 00:50:24;;;;;;;0.40;0.10;;;;;;;18.67;53.99;100761.15;103978;1275;106975;-68
2022/06/05 00:52:55;;;;;;;0.40;0.10;;;;;;;18.60;53.83;100760.30;103812;1274;99528;-67
2022/06/05 00:55:27;;;;;;;0.40;0.10;;;;;;;18.60;53.89;100769.45;104140;1274;108802;-68
2022/06/05 00:57:56;;;;;;;0.40;0.10;;;;;;;18.61;53.66;100762.41;104032;1274;94818;-68
2022/06/05 01:00:29;;;;;;;0.40;0.10;;;;;;;18.59;53.45;100764.98;103899;1274;96574;-68
2022/06/05 01:03:01;;;;;;;0.40;0.10;;;;;;;18.57;53.64;100765.09;104060;1274;107599;-68
2022/06/05 01:05:30;;;;;;;0.40;0.10;;;;;;;18.53;53.64;100763.15;103665;1274;99575;-68
2022/06/05 01:07:58;;;;;;;0.40;0.10;;;;;;;18.44;53.81;100765.27;103963;1274;109034;-68
2022/06/05 01:10:40;;;;;;;0.40;0.10;;;;;;;18.39;53.89;100763.90;104753;1268;125893;-85
2022/06/05 01:13:33;;;;;;;0.40;0.10;;;;;;;18.35;54.12;100760.52;105716;1277;94225;-83
2022/06/05 01:16:07;;;;;;;0.40;0.10;;;;;;;18.39;53.94;100756.17;105455;1276;106576;-81
2022/06/05 01:18:49;;;;;;;0.40;0.10;;;;;;;18.35;53.69;100752.95;105175;1277;100369;-83
2022/06/05 01:21:32;;;;;;;0.40;0.10;;;;;;;18.36;53.59;100750.39;105358;1277;109782;-81
2022/06/05 01:24:31;;;;;;;0.40;0.10;;;;;;;18.34;53.47;100747.77;105233;1276;94129;-82
2022/06/05 01:27:01;;;;;;;0.40;0.10;;;;;;;18.40;53.15;100743.34;105553;1277;94190;-85
2022/06/05 01:29:44;;;;;;;0.40;0.10;;;;;;;18.41;53.04;100745.11;105320;1277;107455;-82
2022/06/05 01:32:27;;;;;;;0.40;0.10;;;;;;;18.38;52.92;100747.77;105451;1277;99862;-81
2022/06/05 01:34:59;;;;;;;0.40;0.10;;;;;;;18.31;52.84;100747.95;105602;1277;107232;-82
2022/06/05 01:37:40;;;;;;;0.40;0.10;;;;;;;18.32;52.79;100748.82;106094;1277;92724;-84
2022/06/05 01:40:20;;;;;;;0.40;0.10;;;;;;;18.31;52.51;100753.73;107283;1277;94005;-86
2022/06/05 01:43:15;;;;;;;0.40;0.10;;;;;;;18.26;52.50;100760.77;107113;1276;106060;-80
2022/06/05 01:45:57;;;;;;;0.40;0.10;;;;;;;18.22;52.64;100764.80;105418;1277;98373;-80
2022/06/05 01:48:36;;;;;;;0.40;0.10;;;;;;;18.16;52.48;100765.29;105262;1277;107845;-81
2022/06/05 01:51:09;;;;;;;0.40;0.10;;;;;;;18.07;52.22;100772.56;105540;1277;94681;-81
2022/06/05 01:53:44;;;;;;;0.40;0.10;;;;;;;18.00;52.24;100783.88;105482;1277;94752;-82
2022/06/05 01:56:27;;;;;;;0.40;0.10;;;;;;;17.92;52.19;100789.15;105503;1277;107764;-83
2022/06/05 01:59:02;;;;;;;0.40;0.10;;;;;;;17.86;52.01;100796.97;105431;1277;99273;-79
2022/06/05 02:01:44;;;;;;;0.40;0.10;;;;;;;17.82;52.26;100795.56;104518;1277;109310;-79
2022/06/05 02:04:25;;;;;;;0.40;0.10;;;;;;;17.85;51.96;100794.13;104593;1277;96557;-80
2022/06/05 02:07:32;;;;;;;0.40;0.10;;;;;;;17.87;51.74;100797.08;104607;1277;95685;-82
2022/06/05 02:10:16;;;;;;;0.40;0.10;;;;;;;17.77;52.11;100801.20;104457;1280;108053;-80
2022/06/05 02:12:44;;;;;;;0.40;0.10;;;;;;;17.75;52.20;100799.69;105479;1277;99408;-81
2022/06/05 02:15:12;;;;;;;0.40;0.10;;;;;;;17.63;52.54;100802.05;105618;1277;109475;-81
2022/06/05 02:17:40;;;;;;;0.40;0.20;;;;;;;17.62;52.57;100801.23;105362;1276;94609;-82
2022/06/05 02:20:10;;;;;;;0.40;0.10;;;;;;;17.62;52.13;100803.35;105524;1277;94764;-81
2022/06/05 02:22:42;;;;;;;0.40;0.10;;;;;;;17.51;51.87;100812.33;105261;1277;107525;-82
2022/06/05 02:25:11;;;;;;;0.40;0.10;;;;;;;17.47;51.72;100814.86;105419;1277;100151;-83
2022/06/05 02:27:40;;;;;;;0.40;0.10;;;;;;;17.49;51.55;100824.26;106072;1274;107662;-80
2022/06/05 02:30:10;;;;;;;0.40;0.10;;;;;;;17.49;52.17;100831.62;105421;1277;94635;-83
2022/06/05 02:33:02;;;;;;;0.40;0.10;;;;;;;17.50;52.56;100831.40;105451;1277;96093;-85
2022/06/05 02:35:45;;;;;;;0.40;0.10;;;;;;;17.46;52.59;100826.58;105298;1276;106005;-86
2022/06/05 02:38:19;;;;;;;0.40;0.20;;;;;;;17.40;52.54;100830.45;105483;1277;99767;-82
2022/06/05 02:40:55;;;;;;;0.40;0.10;;;;;;;17.32;52.45;100832.25;105524;1276;106546;-81
2022/06/05 02:43:44;;;;;;;0.40;0.20;;;;;;;17.28;52.38;100829.95;105589;1277;94682;-82
2022/06/05 02:46:19;;;;;;;0.40;0.10;;;;;;;17.30;52.30;100830.73;105288;1277;94306;-80
2022/06/05 02:49:15;;;;;;;0.40;0.10;;;;;;;17.32;52.14;100830.67;105609;1274;109300;-80
2022/06/05 02:51:45;;;;;;;0.40;0.10;;;;;;;17.32;51.91;100831.04;105513;1274;98653;-80
2022/06/05 02:54:23;;;;;;;0.40;0.20;;;;;;;17.30;51.79;100832.35;105378;1274;108385;-81
2022/06/05 02:56:51;;;;;;;0.40;0.20;;;;;;;17.33;51.70;100828.79;105293;1274;94323;-82
2022/06/05 02:59:19;;;;;;;0.40;0.20;;;;;;;17.33;51.75;100826.67;105512;1274;95045;-85
2022/06/05 03:04:34;;;;;;;0.40;0.20;;;;;;;17.37;51.41;100832.39;105446;1274;99104;-83
2022/06/05 03:07:03;;;;;;;0.40;0.20;;;;;;;17.40;51.24;100842.65;105480;1273;109708;-80
2022/06/05 03:09:31;;;;;;;0.40;0.20;;;;;;;17.35;51.24;100849.18;105258;1274;94408;-81
2022/06/05 03:11:59;;;;;;;0.40;0.20;;;;;;;17.30;51.35;100850.70;105416;1274;95544;-81
2022/06/05 03:14:27;;;;;;;0.40;0.20;;;;;;;17.27;51.31;100850.98;105431;1274;107457;-81
2022/06/05 03:16:56;;;;;;;0.40;0.20;;;;;;;17.26;51.24;100854.25;105354;1274;97723;-81
2022/06/05 03:19:24;;;;;;;0.40;0.20;;;;;;;17.23;51.36;100852.77;105210;1274;109426;-79
2022/06/05 03:21:52;;;;;;;0.40;0.20;;;;;;;17.21;51.31;100854.50;105441;1274;94787;-81
2022/06/05 03:24:20;;;;;;;0.40;0.20;;;;;;;17.17;51.48;100851.98;105564;1274;94209;-82
2022/06/05 03:26:47;;;;;;;0.40;0.20;;;;;;;17.19;51.56;100854.02;105378;1274;108802;-83
2022/06/05 03:29:15;;;;;;;0.40;0.20;;;;;;;17.27;51.83;100858.34;105681;1274;101454;-81
2022/06/05 03:31:43;;;;;;;0.40;0.20;;;;;;;17.33;51.61;100854.63;105485;1274;108135;-82
2022/06/05 03:34:11;;;;;;;0.40;0.20;;;;;;;17.33;51.30;100857.15;105476;1274;94266;-81
2022/06/05 03:36:39;;;;;;;0.40;0.20;;;;;;;17.34;51.24;100857.13;105468;1274;94225;-83
2022/06/05 03:39:07;;;;;;;0.40;0.20;;;;;;;17.30;51.36;100861.61;105433;1274;108625;-85
2022/06/05 03:41:35;;;;;;;0.40;0.20;;;;;;;17.26;51.62;100861.99;105607;1274;100608;-81
2022/06/05 03:44:03;;;;;;;0.40;0.20;;;;;;;17.29;51.20;100869.55;105689;1274;108370;-81
2022/06/05 03:46:35;;;;;;;0.40;0.10;;;;;;;17.34;50.88;100870.42;105456;1274;94376;-82
2022/06/05 03:49:04;;;;;;;0.40;0.10;;;;;;;17.35;50.68;100878.09;105469;1274;94318;-80
2022/06/05 03:51:32;;;;;;;0.40;0.20;;;;;;;17.34;50.67;100881.17;105428;1274;109648;-80
2022/06/05 03:54:00;;;;;;;0.40;0.20;;;;;;;17.32;50.65;100881.10;105459;1274;100098;-81
2022/06/05 03:56:29;;;;;;;0.40;0.20;;;;;;;17.34;50.87;100881.16;105482;1274;107699;-81
2022/06/05 03:58:57;;;;;;;0.40;0.20;;;;;;;17.31;50.28;100878.79;105452;1274;94474;-86
2022/06/05 04:01:27;;;;;;;0.40;0.20;;;;;;;17.29;50.75;100887.52;105352;1274;94582;-81
2022/06/05 04:03:56;;;;;;;0.40;0.20;;;;;;;17.35;50.94;100884.88;105474;1274;108795;-81
2022/06/05 04:06:29;;;;;;;0.40;0.20;;;;;;;17.35;51.00;100892.80;105449;1274;98124;-80
2022/06/05 04:09:04;;;;;;;0.40;0.20;;;;;;;17.31;51.21;100888.66;105555;1274;107454;-86
2022/06/05 04:11:34;;;;;;;0.40;0.20;;;;;;;17.27;50.74;100890.27;105514;1274;94123;-82
2022/06/05 04:14:03;;;;;;;0.40;0.10;;;;;;;17.25;50.98;100891.13;105730;1274;94586;-83
2022/06/05 04:16:32;;;;;;;0.40;0.20;;;;;;;17.28;51.10;100888.48;105568;1274;108789;-84
2022/06/05 04:19:01;;;;;;;0.40;0.20;;;;;;;17.34;51.49;100887.27;105431;1274;99885;-82
2022/06/05 04:21:33;;;;;;;0.40;0.10;;;;;;;17.37;50.95;100885.50;105401;1274;108258;-83
2022/06/05 04:24:01;;;;;;;0.40;0.10;;;;;;;17.31;50.77;100886.16;105763;1274;94304;-83
2022/06/05 04:26:32;;;;;;;0.40;0.10;;;;;;;17.28;50.99;100891.13;105548;1274;94793;-82
2022/06/05 04:29:00;;;;;;;0.40;0.10;;;;;;;17.35;51.12;100889.56;105574;1274;108963;-82
2022/06/05 04:31:31;;;;;;;0.40;0.10;;;;;;;17.41;50.84;100888.38;105569;1274;100041;-81
2022/06/05 04:34:03;;;;;;;0.40;0.10;;;;;;;17.50;51.00;100887.62;105629;1273;108279;-82
2022/06/05 04:36:31;;;;;;;0.40;0.10;;;;;;;17.55;51.18;100887.17;105315;1274;94394;-83
2022/06/05 04:38:59;;;;;;;0.40;0.10;;;;;;;17.64;50.79;100890.91;105588;1274;94206;-83
2022/06/05 04:41:27;;;;;;;0.40;0.10;;;;;;;17.59;50.93;100891.67;105445;1274;107317;-80
2022/06/05 04:43:55;;;;;;;0.40;0.10;;;;;;;17.57;50.93;100898.77;105471;1273;99082;-84
2022/06/05 04:46:27;;;;;;;0.40;0.10;;;;;;;17.65;50.88;100899.81;105617;1274;109192;-82
2022/06/05 04:48:56;;;;;;;0.40;0.20;;;;;;;17.69;50.13;100905.57;105961;1274;94816;-82
2022/06/05 04:51:24;;;;;;;0.40;0.10;;;;;;;17.73;49.90;100906.64;105534;1274;94892;-81
2022/06/05 04:53:55;;;;;;;0.40;0.10;;;;;;;17.76;49.70;100906.52;105464;1274;107768;-82
2022/06/05 04:56:25;;;;;;;0.40;0.10;;;;;;;17.80;49.63;100914.02;105852;1274;98871;-82
2022/06/05 04:58:55;;;;;;;0.40;0.10;;;;;;;17.79;48.59;100908.48;105641;1274;108050;-84
2022/06/05 05:01:27;;;;;;;0.40;0.20;;;;;;;17.76;48.67;100912.60;105638;1274;94659;-83
2022/06/05 05:04:01;;;;;;;0.40;0.20;;;;;;;17.74;48.43;100915.23;105672;1274;94319;-82
2022/06/05 05:06:31;;;;;;;0.40;0.20;;;;;;;17.80;48.81;100913.28;105457;1274;108998;-85
2022/06/05 05:08:59;;;;;;;0.40;0.20;;;;;;;17.94;48.58;100914.77;105537;1274;100166;-83
2022/06/05 05:11:28;;;;;;;0.40;0.10;;;;;;;17.99;48.16;100915.64;105433;1274;106693;-81
2022/06/05 05:13:56;;;;;;;0.40;0.10;;;;;;;18.08;48.15;100913.08;105586;1274;94652;-86
2022/06/05 05:16:27;;;;;;;0.40;0.10;;;;;;;18.03;47.63;100915.42;105609;1274;94604;-83
2022/06/05 05:18:55;;;;;;;0.40;0.10;;;;;;;18.05;48.09;100913.56;105508;1274;107466;-81
2022/06/05 05:21:26;;;;;;;0.40;0.10;;;;;;;18.14;47.63;100913.98;105724;1274;98673;-85
2022/06/05 05:23:55;;;;;;;0.40;0.10;;;;;;;18.27;47.39;100915.16;105961;1274;109241;-84
2022/06/05 05:26:29;;;;;;;0.40;0.10;;;;;;;18.30;47.11;100913.02;105923;1274;94802;-81
2022/06/05 05:29:00;;;;;;;0.40;0.10;;;;;;;18.30;47.08;100911.98;105457;1274;94424;-79
2022/06/05 05:31:31;;;;;;;0.40;0.10;;;;;;;18.30;46.99;100914.82;105610;1274;107915;-82
2022/06/05 05:34:00;;;;;;;0.40;0.10;;;;;;;18.36;46.77;100908.09;105486;1274;97986;-81
2022/06/05 05:36:29;;;;;;;0.40;0.20;;;;;;;18.46;46.64;100910.07;105509;1274;109370;-82
2022/06/05 05:44:40;;;;;;;0.40;0.10;;;;;;;18.58;46.23;100918.25;105602;1274;109047;-82
2022/06/05 05:47:14;;;;;;;0.40;0.10;;;;;;;18.68;45.70;100920.65;105630;1274;100209;-82
2022/06/05 05:49:43;;;;;;;0.40;0.10;;;;;;;18.80;45.99;100919.11;105323;1274;109720;-83
2022/06/05 05:52:12;;;;;;;0.40;0.10;;;;;;;18.90;45.50;100914.28;105558;1274;94343;-83
2022/06/05 05:54:40;;;;;;;0.40;0.10;;;;;;;18.93;45.88;100920.08;105689;1274;94301;-82
2022/06/05 05:57:08;;;;;;;0.40;0.10;;;;;;;18.96;45.40;100919.03;105519;1274;109223;-81
2022/06/05 05:59:37;;;;;;;0.40;0.10;;;;;;;19.03;45.59;100917.75;105917;1273;98839;-83
2022/06/05 06:02:11;;;;;;;0.40;0.10;;;;;;;19.08;45.06;100921.27;105722;1274;109500;-83
2022/06/05 06:04:41;;;;;;;0.40;0.10;;;;;;;19.10;44.96;100924.22;105586;1274;96102;-83
2022/06/05 06:07:09;;;;;;;0.40;0.10;;;;;;;19.17;45.25;100923.85;105952;1274;94223;-81
2022/06/05 06:09:38;;;;;;;0.40;0.20;;;;;;;19.22;45.36;100919.42;105951;1274;107853;-83
2022/06/05 06:12:07;;;;;;;0.40;0.10;;;;;;;19.24;45.09;100916.62;105680;1274;99822;-83
2022/06/05 06:14:36;;;;;;;0.40;0.10;;;;;;;19.21;45.58;100919.14;105598;1274;109326;-82
2022/06/05 06:17:05;;;;;;;0.40;0.10;;;;;;;19.16;45.80;100919.23;105753;1274;94260;-82
2022/06/05 06:19:33;;;;;;;0.40;0.10;;;;;;;19.20;46.13;100924.73;105812;1274;94616;-81
2022/06/05 06:22:02;;;;;;;0.40;0.10;;;;;;;19.18;46.23;100921.44;106143;1274;106331;-83
2022/06/05 06:24:30;;;;;;;0.40;0.10;;;;;;;19.15;46.51;100919.30;107039;1273;99753;-84
2022/06/05 06:26:57;;;;;;;0.40;0.10;;;;;;;19.12;46.93;100923.06;107224;1274;108649;-82
2022/06/05 06:29:26;;;;;;;0.40;0.10;;;;;;;19.08;47.14;100923.78;107367;1273;94223;-81
2022/06/05 06:31:53;;;;;;;0.40;0.10;;;;;;;19.14;46.97;100918.79;105849;1274;94133;-82
2022/06/05 06:34:22;;;;;;;0.40;0.10;;;;;;;19.20;46.56;100919.85;105862;1274;110619;-82
2022/06/05 06:36:50;;;;;;;0.40;0.10;;;;;;;19.27;46.89;100923.88;105707;1274;99863;-82
2022/06/05 06:39:20;;;;;;;0.40;0.10;;;;;;;19.30;46.64;100922.42;105833;1274;106476;-82
2022/06/05 06:41:48;;;;;;;0.40;0.10;;;;;;;19.29;47.25;100924.85;106469;1274;94219;-84
2022/06/05 06:44:17;;;;;;;0.40;0.10;;;;;;;19.29;47.67;100926.96;107317;1274;93487;-83
2022/06/05 06:46:45;;;;;;;0.40;0.10;;;;;;;19.30;48.16;100923.34;106363;1274;107795;-83
2022/06/05 06:49:14;;;;;;;0.40;0.10;;;;;;;19.33;48.56;100921.02;106707;1274;98972;-84
2022/06/05 06:51:42;;;;;;;0.40;0.10;;;;;;;19.47;48.36;100919.90;106035;1274;108454;-82
2022/06/05 06:54:10;;;;;;;0.40;0.10;;;;;;;19.59;48.02;100914.36;106098;1274;94225;-83
2022/06/05 06:56:38;;;;;;;0.40;0.10;;;;;;;19.74;47.76;100914.23;106195;1273;94241;-82
2022/06/05 06:59:06;;;;;;;0.40;0.10;;;;;;;19.84;47.93;100917.85;106166;1274;107895;-84
2022/06/05 07:01:34;;;;;;;0.40;0.10;;;;;;;19.93;47.44;100919.50;106702;1274;98865;-83
2022/06/05 07:04:02;;;;;;;0.40;0.10;;;;;;;20.04;47.07;100916.90;106871;1274;108279;-82
2022/06/05 07:06:30;;;;;;;0.40;0.10;;;;;;;20.12;46.99;100916.41;106882;1274;94592;-83
2022/06/05 07:08:57;;;;;;;0.40;0.10;;;;;;;20.13;46.98;100915.48;107238;1274;94313;-83
2022/06/05 07:11:25;;;;;;;0.40;0.10;;;;;;;20.11;46.78;100907.84;106906;1272;107274;-82
2022/06/05 07:13:53;;;;;;;0.40;0.10;;;;;;;20.09;46.81;100909.58;107154;1274;99005;-83
2022/06/05 07:16:21;;;;;;;0.40;0.10;;;;;;;20.14;46.89;100906.95;107085;1274;106499;-83
2022/06/05 07:18:50;;;;;;;0.40;0.10;;;;;;;20.20;46.72;100904.41;107449;1274;94266;-82
2022/06/05 07:21:22;;;;;;;0.40;0.10;;;;;;;20.26;47.25;100900.69;106724;1273;94234;-82
2022/06/05 07:23:55;;;;;;;0.40;0.10;;;;;;;20.30;46.94;100899.16;106586;1274;107820;-81
2022/06/05 07:26:25;;;;;;;0.40;0.10;;;;;;;20.30;46.27;100901.30;106141;1274;100592;-82
2022/06/05 07:28:56;;;;;;;0.40;0.10;;;;;;;20.30;45.95;100899.00;105646;1273;109271;-82
2022/06/05 07:31:27;;;;;;;0.40;0.10;;;;;;;20.32;46.27;100895.23;105750;1274;94699;-82
2022/06/05 07:33:57;;;;;;;0.40;0.10;;;;;;;20.35;46.35;100892.34;106061;1274;94577;-83
2022/06/05 07:36:27;;;;;;;0.40;0.10;;;;;;;20.40;45.71;100900.91;105828;1274;108018;-82
2022/06/05 07:38:56;;;;;;;0.40;0.10;;;;;;;20.43;46.10;100902.54;105717;1274;99801;-83
2022/06/05 07:41:28;;;;;;;0.40;0.10;;;;;;;20.54;46.20;100900.84;105648;1274;110266;-81
2022/06/05 07:43:56;;;;;;;0.40;0.10;;;;;;;20.66;45.68;100902.64;105711;1273;94194;-80
2022/06/05 07:46:23;;;;;;;0.40;0.10;;;;;;;20.76;45.47;100897.34;105961;1271;94343;-84
2022/06/05 07:48:52;;;;;;;0.40;0.10;;;;;;;20.84;45.12;100897.59;105583;1273;108825;-84
2022/06/05 07:54:32;;;;;;;0.40;0.10;;;;;;;21.03;44.56;100898.02;105596;1272;108840;-80
2022/06/05 07:57:02;;;;;;;0.40;0.10;;;;;;;21.10;44.82;100894.37;105426;1274;95584;-81
2022/06/05 07:59:34;;;;;;;0.40;0.10;;;;;;;21.13;44.16;100896.19;105502;1274;94641;-83
2022/06/05 08:02:14;;;;;;;0.40;0.10;;;;;;;21.06;44.80;100898.56;105580;1274;109156;-81
2022/06/05 08:04:43;;;;;;;0.40;0.10;;;;;;;21.07;44.41;100899.40;105435;1274;99807;-81
2022/06/05 08:07:13;;;;;;;0.40;0.10;;;;;;;21.17;44.45;100898.45;105648;1273;109430;-80
2022/06/05 08:09:42;;;;;;;0.40;0.10;;;;;;;21.21;43.74;100895.08;105871;1273;93813;-80
2022/06/05 08:12:12;;;;;;;0.40;0.10;;;;;;;21.24;43.42;100898.37;105794;1274;94281;-81
2022/06/05 08:14:43;;;;;;;0.40;0.10;;;;;;;21.29;43.38;100898.73;105585;1274;108863;-82
2022/06/05 08:17:14;;;;;;;0.40;0.10;;;;;;;21.35;42.76;100893.70;105819;1274;98897;-83
2022/06/05 08:19:43;;;;;;;0.40;0.10;;;;;;;21.41;43.48;100891.50;105636;1274;106482;-83
2022/06/05 08:22:14;;;;;;;0.40;0.10;;;;;;;21.54;43.27;100894.15;105666;1273;94362;-81
2022/06/05 08:24:42;;;;;;;0.40;0.10;;;;;;;21.65;42.85;100890.52;105746;1273;94193;-82
2022/06/05 08:27:17;;;;;;;0.40;0.10;;;;;;;21.81;42.09;100890.39;105694;1274;109196;-81
2022/06/05 08:29:45;;;;;;;0.40;0.10;;;;;;;21.93;41.70;100895.39;105832;1274;99151;-82
2022/06/05 08:32:14;;;;;;;0.40;0.10;;;;;;;22.14;41.80;100892.73;105799;1271;110680;-82
2022/06/05 08:34:44;;;;;;;0.40;0.20;;;;;;;22.44;41.71;100893.64;105693;1274;94738;-82
2022/06/05 08:43:24;;;;;;;0.40;0.20;;;;;;;22.90;39.71;100893.73;105552;1274;98939;-84
2022/06/05 08:46:03;;;;;;;0.40;0.20;;;;;;;23.05;39.04;100889.07;105753;1274;107601;-83
2022/06/05 08:48:43;;;;;;;0.40;0.10;;;;;;;23.15;38.69;100886.59;106107;1274;94369;-82
2022/06/05 08:51:22;;;;;;;0.40;0.20;;;;;;;23.23;38.66;100883.27;105802;1274;94342;-82
2022/06/05 08:54:01;;;;;;;0.40;0.10;;;;;;;23.39;39.13;100880.52;105674;1273;110049;-83
2022/06/05 08:57:06;;;;;;;0.40;0.20;;;;;;;23.56;38.44;100876.05;105691;1274;99275;-83
2022/06/05 08:59:50;;;;;;;0.40;0.20;;;;;;;23.58;36.46;100882.57;105804;1273;109732;-83
2022/06/05 09:02:38;;;;;;;0.40;0.20;;;;;;;23.57;38.00;100879.92;105639;1273;94230;-82
2022/06/05 09:05:13;;;;;;;0.40;0.10;;;;;;;23.78;38.19;100879.84;105542;1274;94324;-83
2022/06/05 09:07:47;;;;;;;0.40;0.10;;;;;;;23.93;37.36;100879.33;105504;1272;107471;-84
2022/06/05 09:10:24;;;;;;;0.40;0.10;;;;;;;24.00;36.10;100874.93;105645;1274;99837;-82
2022/06/05 09:13:06;;;;;;;0.40;0.10;;;;;;;24.08;35.50;100877.08;105535;1273;109311;-83
2022/06/05 09:15:40;;;;;;;0.40;0.10;;;;;;;24.77;34.32;100872.19;105674;1274;94344;-82
2022/06/05 09:18:19;;;;;;;0.40;0.10;;;;;;;25.97;33.45;100871.62;105883;1273;94741;-84
2022/06/05 09:20:53;;;;;;;0.40;0.10;;;;;;;27.19;32.08;100872.50;105614;1273;108305;-84
2022/06/05 09:23:36;;;;;;;0.40;0.10;;;;;;;28.24;30.28;100866.27;105674;1274;100238;-83
2022/06/05 09:26:12;;;;;;;0.40;0.00;;;;;;;29.25;28.30;100867.29;105637;1274;109634;-81
2022/06/05 09:29:15;;;;;;;0.40;0.00;;;;;;;30.11;27.96;100872.66;105450;1274;94337;-82
2022/06/05 09:31:52;;;;;;;0.40;0.00;;;;;;;31.13;26.29;100878.84;105552;1272;94197;-82
2022/06/05 09:34:31;;;;;;;0.40;0.00;;;;;;;31.52;24.80;100875.42;105784;1274;108920;-82
2022/06/05 09:37:18;;;;;;;0.40;0.00;;;;;;;31.52;24.88;100873.93;105816;1274;98860;-82
2022/06/05 09:39:55;;;;;;;0.40;0.00;;;;;;;32.19;25.16;100865.72;105803;1274;109466;-83
2022/06/05 09:42:49;;;;;;;0.40;0.00;;;;;;;33.31;23.78;100865.48;105828;1274;94341;-83
2022/06/05 09:45:42;;;;;;;0.40;0.00;;;;;;;34.01;21.85;100864.05;105556;1274;94381;-82
2022/06/05 09:48:19;;;;;;;0.40;0.00;;;;;;;34.56;21.66;100869.02;105822;1273;109063;-84
2022/06/05 09:50:47;;;;;;;0.40;0.00;;;;;;;35.12;20.23;100872.98;105640;1272;100569;-83
2022/06/05 09:53:27;;;;;;;0.40;0.00;;;;;;;35.49;20.27;100873.19;105644;1274;109214;-82
2022/06/05 09:56:23;;;;;;;0.40;0.00;;;;;;;36.20;19.72;100869.58;105616;1274;94269;-83
2022/06/05 09:59:00;;;;;;;0.40;0.00;;;;;;;36.82;17.60;100863.09;105700;1273;95382;-83
2022/06/05 10:01:35;;;;;;;0.40;0.00;;;;;;;37.20;18.20;100867.89;105637;1274;107844;-82
2022/06/05 10:04:05;;;;;;;0.50;0.40;;;;;;;37.63;17.91;100867.73;106082;1273;99940;-82
2022/06/05 10:06:40;;;;;;;0.40;0.00;;;;;;;37.95;16.83;100862.23;105696;1273;108427;-84
2022/06/05 10:09:12;;;;;;;0.40;0.00;;;;;;;38.01;16.73;100860.02;105755;1273;94669;-83
2022/06/05 10:11:51;;;;;;;0.40;0.00;;;;;;;38.34;17.78;100862.61;105635;1274;94286;-83
2022/06/05 10:14:38;;;;;;;0.40;0.00;;;;;;;38.62;16.93;100863.31;105531;1274;107435;-83
2022/06/05 10:17:35;;;;;;;0.40;0.00;;;;;;;38.72;17.36;100868.02;105637;1274;99868;-83
2022/06/05 10:20:12;;;;;;;0.40;0.00;;;;;;;39.16;16.92;100873.46;105611;1274;109386;-84
2022/06/05 10:22:53;;;;;;;0.40;0.00;;;;;;;39.33;16.16;100870.63;105925;1274;94793;-84
2022/06/05 10:25:46;;;;;;;0.40;0.00;;;;;;;39.17;16.00;100872.20;105500;1274;280060;-83
2022/06/05 10:28:16;;;;;;;0.40;0.00;;;;;;;39.22;16.33;100875.16;105445;1273;107428;-82
2022/06/05 10:30:53;;;;;;;0.40;0.00;;;;;;;39.60;16.11;100868.65;105501;1274;99834;-83
2022/06/05 10:33:26;;;;;;;0.40;0.00;;;;;;;39.62;15.82;100868.55;105780;1274;109333;-83
2022/06/05 10:36:01;;;;;;;0.40;0.00;;;;;;;39.67;15.39;100867.46;105679;1272;94311;-83
2022/06/05 10:38:58;;;;;;;0.40;0.00;;;;;;;39.73;15.04;100867.90;105594;1274;94675;-82
2022/06/05 10:41:48;;;;;;;0.40;0.00;;;;;;;40.07;15.11;100865.53;105631;1274;109066;-82
2022/06/05 10:44:28;;;;;;;0.40;0.00;;;;;;;40.26;15.05;100867.27;105538;1271;101438;-82
2022/06/05 10:47:27;;;;;;;0.40;0.00;;;;;;;40.12;14.22;100864.54;105530;1273;109323;-83
2022/06/05 10:49:58;;;;;;;0.40;0.00;;;;;;;39.70;15.07;100862.98;105576;1272;94325;-84
2022/06/05 10:52:32;;;;;;;0.40;0.00;;;;;;;39.96;15.10;100868.67;105669;1274;95446;-83
2022/06/05 10:55:17;;;;;;;0.40;0.00;;;;;;;40.30;14.78;100864.34;105526;1274;107086;-82
2022/06/05 10:57:54;;;;;;;0.40;0.00;;;;;;;40.33;14.40;100861.09;105606;1274;99740;-84
2022/06/05 11:00:34;;;;;;;0.40;0.00;;;;;;;39.42;14.66;100862.17;105771;1274;107715;-83
2022/06/05 11:03:12;;;;;;;0.40;0.00;;;;;;;38.40;15.84;100859.35;106565;1274;94600;-87
2022/06/05 11:06:03;;;;;;;0.40;0.00;;;;;;;37.25;16.61;100853.77;107407;1273;94708;-84
2022/06/05 11:08:49;;;;;;;0.40;0.00;;;;;;;35.65;18.13;100855.29;106808;1272;106577;-84
2022/06/05 11:15:00;;;;;;;0.40;0.00;;;;;;;32.78;20.14;100847.83;105522;1274;108789;-84
2022/06/05 11:17:34;;;;;;;0.40;0.00;;;;;;;31.99;21.46;100846.16;105707;1274;94375;-83
2022/06/05 11:20:22;;;;;;;0.40;0.00;;;;;;;31.39;21.56;100844.70;105674;1274;94693;-83
2022/06/05 11:22:55;;;;;;;0.40;0.00;;;;;;;31.21;22.93;100847.04;105854;1274;105361;-82
2022/06/05 11:25:25;;;;;;;0.40;0.00;;;;;;;31.15;22.31;100846.39;105636;1272;100528;-82
2022/06/05 11:28:19;;;;;;;0.40;0.00;;;;;;;30.87;22.24;100847.63;105733;1273;107150;-81
2022/06/05 11:31:05;;;;;;;0.40;0.00;;;;;;;30.49;22.33;100848.89;105636;1274;94325;-82
2022/06/05 11:33:42;;;;;;;0.40;0.00;;;;;;;30.15;22.43;100845.55;106039;1274;94739;-82
2022/06/05 11:36:26;;;;;;;0.40;0.00;;;;;;;29.92;22.87;100840.16;105865;1274;108837;-81
2022/06/05 11:39:21;;;;;;;0.40;0.00;;;;;;;29.64;22.68;100838.19;105948;1273;100148;-83
2022/06/05 11:42:22;;;;;;;0.40;0.00;;;;;;;29.30;22.76;100832.41;105755;1274;108823;-82
2022/06/05 11:45:08;;;;;;;0.40;0.00;;;;;;;28.86;23.04;100829.89;105708;1273;94810;-83
2022/06/05 11:48:03;;;;;;;0.40;0.00;;;;;;;28.66;24.46;100833.28;105735;1273;94300;-84
2022/06/05 11:50:44;;;;;;;0.40;0.00;;;;;;;28.28;24.60;100828.88;105819;1274;107762;-82
2022/06/05 11:53:18;;;;;;;0.40;0.00;;;;;;;28.10;24.83;100827.23;105629;1274;97219;-83
2022/06/05 11:55:58;;;;;;;0.40;0.00;;;;;;;27.96;24.30;100825.39;105806;1274;108572;-84
2022/06/05 11:58:40;;;;;;;0.40;0.00;;;;;;;27.55;24.21;100814.02;106032;1274;94254;-84
2022/06/05 12:01:17;;;;;;;0.40;0.00;;;;;;;27.13;24.88;100815.23;105922;1274;94417;-83
2022/06/05 12:04:12;;;;;;;0.40;0.00;;;;;;;27.10;25.40;100811.27;105726;1273;108769;-85
2022/06/05 12:06:57;;;;;;;0.40;0.00;;;;;;;26.93;26.38;100806.28;105557;1273;99834;-83
2022/06/05 12:09:29;;;;;;;0.40;0.00;;;;;;;26.97;25.82;100807.14;105959;1274;112559;-84